Musashi — JD3817 — position and weather

sailwx.info

Track history (hours):
 
Tides and Currents Weather Stations Pressure Air Temp Water Temp Dewpoint Dewpoint Depression Visibility Wind Speed Wind Dir Waves Ship Positions

Musashi

Last reported at 2018-Feb-21 08:58 UTC. Time now 2018-Feb-21 09:09 UTC.
Position N 35°38' E 139°46'.

Length 37 m; draft 2.8 m.

Type: Tug. MMSI: 431006206.

Date/timePositionNaut miles runAvg speedWind from/ knotsBaromVisibWave heightAir tempDewpointWater temp
2018-Feb-21 08:58N 35°38' E 139°46'0 0.0
2018-Feb-21 08:23N 35°38' E 139°46'0 0.3
2018-Feb-21 08:01N 35°38' E 139°46'2 4.5
2018-Feb-21 07:28N 35°36' E 139°47'4 7.7
2018-Feb-21 07:00N 35°33' E 139°50'3 5.5
2018-Feb-21 06:30N 35°32' E 139°53'611.2
2018-Feb-21 05:57N 35°36' E 139°47'3 0.4
2018-Feb-20 22:44N 35°38' E 139°46'0 0.2
2018-Feb-20 22:17N 35°38' E 139°45'1 3.3
2018-Feb-20 22:00N 35°37' E 139°46'4 8.4
2018-Feb-20 21:30N 35°34' E 139°49'4 7.5
2018-Feb-20 21:00N 35°37' E 139°46'2 0.1
2018-Feb-20 05:52N 35°39' E 139°46'2 5.7
2018-Feb-20 05:29N 35°36' E 139°46'2 3.2
2018-Feb-20 05:00N 35°35' E 139°47'2 3.9
2018-Feb-20 04:30N 35°37' E 139°46'2 0.3
2018-Feb-19 23:03N 35°39' E 139°46'0 0.0
2018-Feb-19 22:57N 35°39' E 139°46'0 0.0
2018-Feb-19 22:13N 35°39' E 139°46'0 0.0
2018-Feb-19 21:56N 35°39' E 139°46'0 0.0
2018-Feb-19 21:24N 35°39' E 139°46'2 5.7
2018-Feb-19 20:58N 35°36' E 139°46'2 3.3
2018-Feb-19 20:30N 35°38' E 139°46'1 0.4
2018-Feb-19 17:46N 35°39' E 139°46'0 0.0
2018-Feb-19 17:18N 35°39' E 139°46'0 0.0
2018-Feb-19 16:59N 35°39' E 139°46'0 0.0
2018-Feb-19 16:29N 35°39' E 139°46'0 0.0
2018-Feb-19 16:00N 35°39' E 139°46'0 0.0
2018-Feb-19 15:28N 35°39' E 139°46'0 0.0
2018-Feb-19 14:09N 35°39' E 139°46'0 0.0
2018-Feb-19 13:56N 35°39' E 139°46'0 0.0
2018-Feb-19 13:29N 35°39' E 139°46'0 0.0
2018-Feb-19 12:58N 35°39' E 139°46'0 0.0
2018-Feb-19 12:27N 35°39' E 139°46'0 0.0
2018-Feb-19 11:59N 35°39' E 139°46'0 0.0
2018-Feb-19 11:29N 35°39' E 139°46'0 0.0
2018-Feb-19 10:59N 35°39' E 139°46'0 0.0
2018-Feb-19 10:27N 35°39' E 139°46'2 5.2
2018-Feb-19 10:00N 35°37' E 139°47'0 0.7
2018-Feb-19 09:30N 35°36' E 139°47'2 4.6
2018-Feb-19 09:00N 35°35' E 139°49'2 1.5
2018-Feb-19 07:38N 35°36' E 139°47'0 0.7
2018-Feb-19 07:09N 35°36' E 139°46'0 0.5
2018-Feb-19 06:57N 35°36' E 139°46'0 0.5
2018-Feb-19 06:17N 35°36' E 139°47'1 3.5
2018-Feb-19 05:59N 35°35' E 139°48'1 2.4
2018-Feb-19 05:30N 35°36' E 139°47'3 5.0
2018-Feb-19 04:52N 35°39' E 139°46'0 0.0
2018-Feb-18 22:09N 35°39' E 139°46'1 8.6
2018-Feb-18 22:00N 35°37' E 139°46'1 2.5
2018-Feb-18 21:31N 35°36' E 139°46'2 4.0
2018-Feb-18 21:00N 35°35' E 139°48'2 3.3
2018-Feb-18 20:30N 35°36' E 139°47'2 0.6
2018-Feb-18 16:44N 35°38' E 139°46'0 0.0
2018-Feb-18 12:53N 35°38' E 139°46'0 0.0
2018-Feb-18 12:15N 35°38' E 139°46'0 0.0
2018-Feb-18 11:52N 35°38' E 139°46'0 0.0
2018-Feb-18 11:20N 35°38' E 139°46'0 0.0
2018-Feb-18 11:00N 35°38' E 139°46'0 0.0
2018-Feb-18 04:36N 35°38' E 139°46'0 0.0
2018-Feb-18 01:22N 35°38' E 139°46'0 0.0
2018-Feb-18 00:50N 35°38' E 139°46'0 0.0
2018-Feb-18 00:21N 35°38' E 139°46'0 0.0
2018-Feb-17 23:52N 35°38' E 139°46'0 0.1
2018-Feb-17 23:28N 35°38' E 139°45'2 5.0
2018-Feb-17 23:00N 35°36' E 139°47'2 4.0
2018-Feb-17 22:30N 35°35' E 139°48'3 6.2
2018-Feb-17 22:00N 35°37' E 139°46'1 2.2
2018-Feb-17 21:27N 35°38' E 139°46'0 0.0
2018-Feb-17 20:59N 35°38' E 139°46'0 0.0
2018-Feb-17 20:27N 35°38' E 139°46'0 0.0
2018-Feb-17 19:58N 35°38' E 139°46'0 0.0
2018-Feb-17 11:43N 35°38' E 139°45'311.3
2018-Feb-17 11:29N 35°36' E 139°47'1 1.6
2018-Feb-17 10:42N 35°37' E 139°47'1 2.3
2018-Feb-17 10:28N 35°37' E 139°48'3 6.4
2018-Feb-17 09:57N 35°35' E 139°51'2 4.2
2018-Feb-17 09:25N 35°33' E 139°53'0 0.8
2018-Feb-17 09:00N 35°33' E 139°53'5 7.3
2018-Feb-17 08:22N 35°37' E 139°49'3 7.9
2018-Feb-17 08:00N 35°37' E 139°46'1 2.1
2018-Feb-17 07:29N 35°38' E 139°46'0 0.0
2018-Feb-17 06:54N 35°38' E 139°46'0 0.0
2018-Feb-17 06:29N 35°38' E 139°46'0 0.0
2018-Feb-17 06:00N 35°38' E 139°46'0 0.0
2018-Feb-17 05:29N 35°38' E 139°46'0 0.0
2018-Feb-17 04:55N 35°38' E 139°46'0 0.0
2018-Feb-17 03:33N 35°38' E 139°46'0 0.0
2018-Feb-17 03:21N 35°38' E 139°46'0 0.0
2018-Feb-17 02:15N 35°38' E 139°46'0 0.0
2018-Feb-17 01:53N 35°38' E 139°46'0 0.0
2018-Feb-17 01:22N 35°38' E 139°46'0 0.0
2018-Feb-17 00:57N 35°38' E 139°46'0 0.0
2018-Feb-17 00:28N 35°38' E 139°46'0 0.0
2018-Feb-16 23:37N 35°38' E 139°46'0 0.0
2018-Feb-16 23:30N 35°38' E 139°46'0 0.0
2018-Feb-16 22:57N 35°38' E 139°46'1 2.8
2018-Feb-16 22:30N 35°37' E 139°46'1 2.0
2018-Feb-16 22:00N 35°36' E 139°47'2 3.7
2018-Feb-16 21:29N 35°34' E 139°48'4 8.3
2018-Feb-16 20:59N 35°38' E 139°46'0 0.0
2018-Feb-16 19:49N 35°38' E 139°46'0 0.0
2018-Feb-16 19:29N 35°38' E 139°46'0 0.0
2018-Feb-16 14:03N 35°38' E 139°46'0 0.0
2018-Feb-16 13:49N 35°38' E 139°46'0 0.0
2018-Feb-16 12:06N 35°38' E 139°46'0 0.0
2018-Feb-16 11:58N 35°38' E 139°46'0 0.0
2018-Feb-16 11:15N 35°38' E 139°46'0 0.0
2018-Feb-16 10:59N 35°38' E 139°46'0 0.0
2018-Feb-16 10:21N 35°38' E 139°46'0 0.0
2018-Feb-16 09:59N 35°38' E 139°46'0 0.0
2018-Feb-16 09:23N 35°38' E 139°46'0 0.0
2018-Feb-16 08:55N 35°38' E 139°46'0 0.0
2018-Feb-16 08:30N 35°38' E 139°46'0 0.0
2018-Feb-16 07:59N 35°38' E 139°46'0 0.0
2018-Feb-16 07:29N 35°38' E 139°46'0 0.0
2018-Feb-16 06:59N 35°38' E 139°46'0 0.0
2018-Feb-16 04:38N 35°38' E 139°46'0 0.0
2018-Feb-16 04:15N 35°38' E 139°46'0 0.0
2018-Feb-16 03:55N 35°38' E 139°46'0 0.0
2018-Feb-16 03:29N 35°38' E 139°46'0 0.0
2018-Feb-16 02:59N 35°38' E 139°46'0 0.0
2018-Feb-16 02:26N 35°38' E 139°46'0 0.0
2018-Feb-15 13:48N 35°38' E 139°46'0 0.0
2018-Feb-15 09:38N 35°38' E 139°46'110.8
2018-Feb-15 09:30N 35°37' E 139°46'0 0.9
2018-Feb-15 08:59N 35°36' E 139°46'3 5.9
2018-Feb-15 08:30N 35°34' E 139°48'3 5.4
2018-Feb-15 08:00N 35°37' E 139°46'2 1.5
2018-Feb-15 06:49N 35°38' E 139°46'0 0.0
2018-Feb-15 02:33N 35°38' E 139°46'0 0.0
2018-Feb-15 02:20N 35°38' E 139°46'0 0.0
2018-Feb-15 01:59N 35°38' E 139°46'0 0.0
2018-Feb-15 01:29N 35°38' E 139°46'0 0.0
2018-Feb-15 00:53N 35°38' E 139°46'0 0.0
2018-Feb-15 00:28N 35°38' E 139°46'0 0.0
2018-Feb-15 00:00N 35°38' E 139°46'0 0.1
2018-Feb-14 22:41N 35°38' E 139°45'211.0
2018-Feb-14 22:30N 35°36' E 139°46'2 3.5
2018-Feb-14 22:00N 35°35' E 139°48'1 2.4
2018-Feb-14 21:30N 35°35' E 139°46'0 0.0
2018-Feb-14 21:00N 35°35' E 139°46'1 2.1
2018-Feb-14 20:30N 35°36' E 139°46'0 0.9
2018-Feb-14 20:00N 35°37' E 139°46'1 0.3
2018-Feb-14 14:53N 35°38' E 139°46'0 0.0
2018-Feb-14 05:16N 35°38' E 139°46'0 0.0
2018-Feb-14 04:58N 35°38' E 139°46'0 0.0
2018-Feb-14 04:26N 35°38' E 139°46'0 0.0
2018-Feb-14 04:00N 35°38' E 139°46'0 0.0
2018-Feb-14 03:30N 35°38' E 139°46'0 0.0
2018-Feb-14 03:00N 35°38' E 139°46'0 0.0
2018-Feb-14 02:30N 35°38' E 139°46'0 0.0
2018-Feb-14 01:59N 35°38' E 139°46'0 0.0
2018-Feb-14 01:30N 35°38' E 139°46'0 0.0
2018-Feb-14 00:59N 35°38' E 139°46'0 0.0
2018-Feb-14 00:27N 35°38' E 139°46'0 0.0
2018-Feb-13 23:59N 35°38' E 139°46'0 0.0
2018-Feb-13 23:29N 35°38' E 139°46'0 0.0
2018-Feb-13 22:59N 35°38' E 139°46'0 0.0
2018-Feb-13 22:30N 35°38' E 139°46'0 0.0
2018-Feb-13 22:00N 35°38' E 139°46'0 0.0
2018-Feb-13 21:30N 35°38' E 139°46'0 0.0
2018-Feb-13 20:58N 35°38' E 139°46'0 0.0
2018-Feb-13 20:26N 35°38' E 139°46'0 0.0
2018-Feb-13 19:57N 35°38' E 139°46'0 0.0
2018-Feb-13 19:30N 35°38' E 139°46'0 0.0
2018-Feb-13 18:56N 35°38' E 139°46'0 0.0
2018-Feb-13 18:27N 35°38' E 139°46'0 0.0
2018-Feb-13 18:00N 35°38' E 139°46'0 0.0
2018-Feb-13 17:30N 35°38' E 139°46'0 0.2
2018-Feb-13 17:00N 35°38' E 139°46'2 3.7
2018-Feb-13 16:31N 35°37' E 139°47'1 3.0
2018-Feb-13 16:00N 35°35' E 139°48'1 2.3
2018-Feb-13 15:30N 35°34' E 139°48'3 5.1
2018-Feb-13 15:01N 35°36' E 139°46'1 2.8
2018-Feb-13 14:30N 35°38' E 139°46'1 1.3
2018-Feb-13 14:00N 35°38' E 139°46'0 0.0
2018-Feb-13 13:30N 35°38' E 139°46'0 0.0
2018-Feb-13 12:57N 35°38' E 139°46'0 0.0
2018-Feb-13 12:30N 35°38' E 139°46'0 0.0
2018-Feb-13 12:00N 35°38' E 139°46'0 0.0
2018-Feb-13 11:26N 35°38' E 139°46'0 0.0
2018-Feb-13 11:00N 35°38' E 139°46'2 3.6
2018-Feb-13 10:30N 35°36' E 139°46'1 1.4
2018-Feb-13 10:00N 35°36' E 139°47'3 5.1
2018-Feb-13 09:30N 35°34' E 139°49'2 4.1
2018-Feb-13 08:58N 35°35' E 139°47'0 0.0
2018-Feb-13 08:29N 35°35' E 139°47'0 0.0
2018-Feb-13 07:57N 35°35' E 139°47'1 2.9
2018-Feb-13 07:30N 35°37' E 139°46'1 1.9
2018-Feb-13 07:00N 35°37' E 139°46'1 0.7
2018-Feb-13 05:56N 35°38' E 139°46'0 0.0
2018-Feb-13 05:25N 35°38' E 139°46'0 0.0
2018-Feb-13 04:46N 35°38' E 139°46'0 0.0
2018-Feb-13 02:41N 35°38' E 139°46'0 0.0
2018-Feb-13 02:28N 35°38' E 139°46'0 0.0
2018-Feb-13 01:23N 35°38' E 139°46'0 0.0
2018-Feb-13 00:18N 35°38' E 139°46'0 0.0
2018-Feb-12 21:11N 35°38' E 139°46'0 0.0
2018-Feb-12 20:36N 35°38' E 139°46'0 0.0
2018-Feb-12 20:30N 35°38' E 139°46'0 0.0
2018-Feb-12 19:38N 35°38' E 139°46'0 0.0
2018-Feb-12 19:21N 35°38' E 139°46'0 0.0
2018-Feb-12 16:49N 35°38' E 139°46'0 0.0
2018-Feb-12 16:22N 35°38' E 139°46'0 0.0
2018-Feb-12 15:02N 35°38' E 139°46'0 0.0
2018-Feb-12 14:35N 35°38' E 139°46'0 0.0
2018-Feb-12 14:29N 35°38' E 139°46'0 0.0
2018-Feb-12 14:00N 35°38' E 139°46'0 0.0
2018-Feb-12 13:28N 35°38' E 139°46'0 0.0
2018-Feb-12 12:54N 35°38' E 139°46'0 0.0
2018-Feb-12 12:29N 35°38' E 139°46'1 1.5
2018-Feb-12 12:00N 35°38' E 139°46'1 2.8
2018-Feb-12 11:29N 35°36' E 139°46'2 4.4
2018-Feb-12 10:56N 35°35' E 139°49'3 6.5
2018-Feb-12 10:30N 35°37' E 139°46'0 0.9
2018-Feb-12 10:00N 35°37' E 139°47'1 2.2
2018-Feb-12 09:29N 35°36' E 139°47'2 4.1
2018-Feb-12 08:55N 35°34' E 139°49'3 7.2
2018-Feb-12 08:30N 35°36' E 139°46'0 0.6
2018-Feb-12 08:00N 35°36' E 139°46'3 5.1
2018-Feb-12 07:30N 35°39' E 139°46'0 0.0
2018-Feb-12 06:59N 35°39' E 139°46'0 0.0
2018-Feb-12 06:30N 35°39' E 139°46'0 0.0
2018-Feb-12 06:00N 35°39' E 139°46'0 0.0
2018-Feb-12 05:13N 35°39' E 139°46'0 0.0
2018-Feb-12 04:47N 35°39' E 139°46'0 0.0
2018-Feb-12 04:22N 35°39' E 139°46'0 0.0
2018-Feb-12 03:58N 35°39' E 139°46'0 0.0
2018-Feb-12 03:19N 35°39' E 139°46'0 0.0
2018-Feb-12 02:58N 35°39' E 139°46'0 0.0
2018-Feb-12 02:27N 35°39' E 139°46'0 0.0
2018-Feb-12 01:53N 35°39' E 139°46'0 0.0
2018-Feb-12 01:26N 35°39' E 139°46'0 0.0
2018-Feb-12 00:58N 35°39' E 139°46'1 1.5
2018-Feb-12 00:30N 35°39' E 139°46'1 0.1
2018-Feb-11 12:18N 35°39' E 139°46'2 8.2
2018-Feb-11 12:00N 35°36' E 139°46'0 0.9
2018-Feb-11 11:30N 35°36' E 139°47'1 1.8
2018-Feb-11 10:57N 35°35' E 139°47'2 4.7
2018-Feb-11 10:31N 35°37' E 139°46'  
Track history (hours):
 
Tides and Currents Weather Stations Pressure Air Temp Water Temp Dewpoint Dewpoint Depression Visibility Wind Speed Wind Dir Waves Ship Positions

Musashi

Last reported at 2018-Feb-21 08:58 UTC. Time now 2018-Feb-21 09:09 UTC.
Position N 35°38' E 139°46'.

Length 37 m; draft 2.8 m.

Type: Tug. MMSI: 431006206.

Date/timePositionNaut miles runAvg speedWind from/ knotsBaromVisibWave heightAir tempDewpointWater temp
2018-Feb-21 08:58N 35°38' E 139°46'0 0.0
2018-Feb-21 08:23N 35°38' E 139°46'0 0.3
2018-Feb-21 08:01N 35°38' E 139°46'2 4.5
2018-Feb-21 07:28N 35°36' E 139°47'4 7.7
2018-Feb-21 07:00N 35°33' E 139°50'3 5.5
2018-Feb-21 06:30N 35°32' E 139°53'611.2
2018-Feb-21 05:57N 35°36' E 139°47'3 0.4
2018-Feb-20 22:44N 35°38' E 139°46'0 0.2
2018-Feb-20 22:17N 35°38' E 139°45'1 3.3
2018-Feb-20 22:00N 35°37' E 139°46'4 8.4
2018-Feb-20 21:30N 35°34' E 139°49'4 7.5
2018-Feb-20 21:00N 35°37' E 139°46'2 0.1
2018-Feb-20 05:52N 35°39' E 139°46'2 5.7
2018-Feb-20 05:29N 35°36' E 139°46'2 3.2
2018-Feb-20 05:00N 35°35' E 139°47'2 3.9
2018-Feb-20 04:30N 35°37' E 139°46'2 0.3
2018-Feb-19 23:03N 35°39' E 139°46'0 0.0
2018-Feb-19 22:57N 35°39' E 139°46'0 0.0
2018-Feb-19 22:13N 35°39' E 139°46'0 0.0
2018-Feb-19 21:56N 35°39' E 139°46'0 0.0
2018-Feb-19 21:24N 35°39' E 139°46'2 5.7
2018-Feb-19 20:58N 35°36' E 139°46'2 3.3
2018-Feb-19 20:30N 35°38' E 139°46'1 0.4
2018-Feb-19 17:46N 35°39' E 139°46'0 0.0
2018-Feb-19 17:18N 35°39' E 139°46'0 0.0
2018-Feb-19 16:59N 35°39' E 139°46'0 0.0
2018-Feb-19 16:29N 35°39' E 139°46'0 0.0
2018-Feb-19 16:00N 35°39' E 139°46'0 0.0
2018-Feb-19 15:28N 35°39' E 139°46'0 0.0
2018-Feb-19 14:09N 35°39' E 139°46'0 0.0
2018-Feb-19 13:56N 35°39' E 139°46'0 0.0
2018-Feb-19 13:29N 35°39' E 139°46'0 0.0
2018-Feb-19 12:58N 35°39' E 139°46'0 0.0
2018-Feb-19 12:27N 35°39' E 139°46'0 0.0
2018-Feb-19 11:59N 35°39' E 139°46'0 0.0
2018-Feb-19 11:29N 35°39' E 139°46'0 0.0
2018-Feb-19 10:59N 35°39' E 139°46'0 0.0
2018-Feb-19 10:27N 35°39' E 139°46'2 5.2
2018-Feb-19 10:00N 35°37' E 139°47'0 0.7
2018-Feb-19 09:30N 35°36' E 139°47'2 4.6
2018-Feb-19 09:00N 35°35' E 139°49'2 1.5
2018-Feb-19 07:38N 35°36' E 139°47'0 0.7
2018-Feb-19 07:09N 35°36' E 139°46'0 0.5
2018-Feb-19 06:57N 35°36' E 139°46'0 0.5
2018-Feb-19 06:17N 35°36' E 139°47'1 3.5
2018-Feb-19 05:59N 35°35' E 139°48'1 2.4
2018-Feb-19 05:30N 35°36' E 139°47'3 5.0
2018-Feb-19 04:52N 35°39' E 139°46'0 0.0
2018-Feb-18 22:09N 35°39' E 139°46'1 8.6
2018-Feb-18 22:00N 35°37' E 139°46'1 2.5
2018-Feb-18 21:31N 35°36' E 139°46'2 4.0
2018-Feb-18 21:00N 35°35' E 139°48'2 3.3
2018-Feb-18 20:30N 35°36' E 139°47'2 0.6
2018-Feb-18 16:44N 35°38' E 139°46'0 0.0
2018-Feb-18 12:53N 35°38' E 139°46'0 0.0
2018-Feb-18 12:15N 35°38' E 139°46'0 0.0
2018-Feb-18 11:52N 35°38' E 139°46'0 0.0
2018-Feb-18 11:20N 35°38' E 139°46'0 0.0
2018-Feb-18 11:00N 35°38' E 139°46'0 0.0
2018-Feb-18 04:36N 35°38' E 139°46'0 0.0
2018-Feb-18 01:22N 35°38' E 139°46'0 0.0
2018-Feb-18 00:50N 35°38' E 139°46'0 0.0
2018-Feb-18 00:21N 35°38' E 139°46'0 0.0
2018-Feb-17 23:52N 35°38' E 139°46'0 0.1
2018-Feb-17 23:28N 35°38' E 139°45'2 5.0
2018-Feb-17 23:00N 35°36' E 139°47'2 4.0
2018-Feb-17 22:30N 35°35' E 139°48'3 6.2
2018-Feb-17 22:00N 35°37' E 139°46'1 2.2
2018-Feb-17 21:27N 35°38' E 139°46'0 0.0
2018-Feb-17 20:59N 35°38' E 139°46'0 0.0
2018-Feb-17 20:27N 35°38' E 139°46'0 0.0
2018-Feb-17 19:58N 35°38' E 139°46'0 0.0
2018-Feb-17 11:43N 35°38' E 139°45'311.3
2018-Feb-17 11:29N 35°36' E 139°47'1 1.6
2018-Feb-17 10:42N 35°37' E 139°47'1 2.3
2018-Feb-17 10:28N 35°37' E 139°48'3 6.4
2018-Feb-17 09:57N 35°35' E 139°51'2 4.2
2018-Feb-17 09:25N 35°33' E 139°53'0 0.8
2018-Feb-17 09:00N 35°33' E 139°53'5 7.3
2018-Feb-17 08:22N 35°37' E 139°49'3 7.9
2018-Feb-17 08:00N 35°37' E 139°46'1 2.1
2018-Feb-17 07:29N 35°38' E 139°46'0 0.0
2018-Feb-17 06:54N 35°38' E 139°46'0 0.0
2018-Feb-17 06:29N 35°38' E 139°46'0 0.0
2018-Feb-17 06:00N 35°38' E 139°46'0 0.0
2018-Feb-17 05:29N 35°38' E 139°46'0 0.0
2018-Feb-17 04:55N 35°38' E 139°46'0 0.0
2018-Feb-17 03:33N 35°38' E 139°46'0 0.0
2018-Feb-17 03:21N 35°38' E 139°46'0 0.0
2018-Feb-17 02:15N 35°38' E 139°46'0 0.0
2018-Feb-17 01:53N 35°38' E 139°46'0 0.0
2018-Feb-17 01:22N 35°38' E 139°46'0 0.0
2018-Feb-17 00:57N 35°38' E 139°46'0 0.0
2018-Feb-17 00:28N 35°38' E 139°46'0 0.0
2018-Feb-16 23:37N 35°38' E 139°46'0 0.0
2018-Feb-16 23:30N 35°38' E 139°46'0 0.0
2018-Feb-16 22:57N 35°38' E 139°46'1 2.8
2018-Feb-16 22:30N 35°37' E 139°46'1 2.0
2018-Feb-16 22:00N 35°36' E 139°47'2 3.7
2018-Feb-16 21:29N 35°34' E 139°48'4 8.3
2018-Feb-16 20:59N 35°38' E 139°46'0 0.0
2018-Feb-16 19:49N 35°38' E 139°46'0 0.0
2018-Feb-16 19:29N 35°38' E 139°46'0 0.0
2018-Feb-16 14:03N 35°38' E 139°46'0 0.0
2018-Feb-16 13:49N 35°38' E 139°46'0 0.0
2018-Feb-16 12:06N 35°38' E 139°46'0 0.0
2018-Feb-16 11:58N 35°38' E 139°46'0 0.0
2018-Feb-16 11:15N 35°38' E 139°46'0 0.0
2018-Feb-16 10:59N 35°38' E 139°46'0 0.0
2018-Feb-16 10:21N 35°38' E 139°46'0 0.0
2018-Feb-16 09:59N 35°38' E 139°46'0 0.0
2018-Feb-16 09:23N 35°38' E 139°46'0 0.0
2018-Feb-16 08:55N 35°38' E 139°46'0 0.0
2018-Feb-16 08:30N 35°38' E 139°46'0 0.0
2018-Feb-16 07:59N 35°38' E 139°46'0 0.0
2018-Feb-16 07:29N 35°38' E 139°46'0 0.0
2018-Feb-16 06:59N 35°38' E 139°46'0 0.0
2018-Feb-16 04:38N 35°38' E 139°46'0 0.0
2018-Feb-16 04:15N 35°38' E 139°46'0 0.0
2018-Feb-16 03:55N 35°38' E 139°46'0 0.0
2018-Feb-16 03:29N 35°38' E 139°46'0 0.0
2018-Feb-16 02:59N 35°38' E 139°46'0 0.0
2018-Feb-16 02:26N 35°38' E 139°46'0 0.0
2018-Feb-15 13:48N 35°38' E 139°46'0 0.0
2018-Feb-15 09:38N 35°38' E 139°46'110.8
2018-Feb-15 09:30N 35°37' E 139°46'0 0.9
2018-Feb-15 08:59N 35°36' E 139°46'3 5.9
2018-Feb-15 08:30N 35°34' E 139°48'3 5.4
2018-Feb-15 08:00N 35°37' E 139°46'2 1.5
2018-Feb-15 06:49N 35°38' E 139°46'0 0.0
2018-Feb-15 02:33N 35°38' E 139°46'0 0.0
2018-Feb-15 02:20N 35°38' E 139°46'0 0.0
2018-Feb-15 01:59N 35°38' E 139°46'0 0.0
2018-Feb-15 01:29N 35°38' E 139°46'0 0.0
2018-Feb-15 00:53N 35°38' E 139°46'0 0.0
2018-Feb-15 00:28N 35°38' E 139°46'0 0.0
2018-Feb-15 00:00N 35°38' E 139°46'0 0.1
2018-Feb-14 22:41N 35°38' E 139°45'211.0
2018-Feb-14 22:30N 35°36' E 139°46'2 3.5
2018-Feb-14 22:00N 35°35' E 139°48'1 2.4
2018-Feb-14 21:30N 35°35' E 139°46'0 0.0
2018-Feb-14 21:00N 35°35' E 139°46'1 2.1
2018-Feb-14 20:30N 35°36' E 139°46'0 0.9
2018-Feb-14 20:00N 35°37' E 139°46'1 0.3
2018-Feb-14 14:53N 35°38' E 139°46'0 0.0
2018-Feb-14 05:16N 35°38' E 139°46'0 0.0
2018-Feb-14 04:58N 35°38' E 139°46'0 0.0
2018-Feb-14 04:26N 35°38' E 139°46'0 0.0
2018-Feb-14 04:00N 35°38' E 139°46'0 0.0
2018-Feb-14 03:30N 35°38' E 139°46'0 0.0
2018-Feb-14 03:00N 35°38' E 139°46'0 0.0
2018-Feb-14 02:30N 35°38' E 139°46'0 0.0
2018-Feb-14 01:59N 35°38' E 139°46'0 0.0
2018-Feb-14 01:30N 35°38' E 139°46'0 0.0
2018-Feb-14 00:59N 35°38' E 139°46'0 0.0
2018-Feb-14 00:27N 35°38' E 139°46'0 0.0
2018-Feb-13 23:59N 35°38' E 139°46'0 0.0
2018-Feb-13 23:29N 35°38' E 139°46'0 0.0
2018-Feb-13 22:59N 35°38' E 139°46'0 0.0
2018-Feb-13 22:30N 35°38' E 139°46'0 0.0
2018-Feb-13 22:00N 35°38' E 139°46'0 0.0
2018-Feb-13 21:30N 35°38' E 139°46'0 0.0
2018-Feb-13 20:58N 35°38' E 139°46'0 0.0
2018-Feb-13 20:26N 35°38' E 139°46'0 0.0
2018-Feb-13 19:57N 35°38' E 139°46'0 0.0
2018-Feb-13 19:30N 35°38' E 139°46'0 0.0
2018-Feb-13 18:56N 35°38' E 139°46'0 0.0
2018-Feb-13 18:27N 35°38' E 139°46'0 0.0
2018-Feb-13 18:00N 35°38' E 139°46'0 0.0
2018-Feb-13 17:30N 35°38' E 139°46'0 0.2
2018-Feb-13 17:00N 35°38' E 139°46'2 3.7
2018-Feb-13 16:31N 35°37' E 139°47'1 3.0
2018-Feb-13 16:00N 35°35' E 139°48'1 2.3
2018-Feb-13 15:30N 35°34' E 139°48'3 5.1
2018-Feb-13 15:01N 35°36' E 139°46'1 2.8
2018-Feb-13 14:30N 35°38' E 139°46'1 1.3
2018-Feb-13 14:00N 35°38' E 139°46'0 0.0
2018-Feb-13 13:30N 35°38' E 139°46'0 0.0
2018-Feb-13 12:57N 35°38' E 139°46'0 0.0
2018-Feb-13 12:30N 35°38' E 139°46'0 0.0
2018-Feb-13 12:00N 35°38' E 139°46'0 0.0
2018-Feb-13 11:26N 35°38' E 139°46'0 0.0
2018-Feb-13 11:00N 35°38' E 139°46'2 3.6
2018-Feb-13 10:30N 35°36' E 139°46'1 1.4
2018-Feb-13 10:00N 35°36' E 139°47'3 5.1
2018-Feb-13 09:30N 35°34' E 139°49'2 4.1
2018-Feb-13 08:58N 35°35' E 139°47'0 0.0
2018-Feb-13 08:29N 35°35' E 139°47'0 0.0
2018-Feb-13 07:57N 35°35' E 139°47'1 2.9
2018-Feb-13 07:30N 35°37' E 139°46'1 1.9
2018-Feb-13 07:00N 35°37' E 139°46'1 0.7
2018-Feb-13 05:56N 35°38' E 139°46'0 0.0
2018-Feb-13 05:25N 35°38' E 139°46'0 0.0
2018-Feb-13 04:46N 35°38' E 139°46'0 0.0
2018-Feb-13 02:41N 35°38' E 139°46'0 0.0
2018-Feb-13 02:28N 35°38' E 139°46'0 0.0
2018-Feb-13 01:23N 35°38' E 139°46'0 0.0
2018-Feb-13 00:18N 35°38' E 139°46'0 0.0
2018-Feb-12 21:11N 35°38' E 139°46'0 0.0
2018-Feb-12 20:36N 35°38' E 139°46'0 0.0
2018-Feb-12 20:30N 35°38' E 139°46'0 0.0
2018-Feb-12 19:38N 35°38' E 139°46'0 0.0
2018-Feb-12 19:21N 35°38' E 139°46'0 0.0
2018-Feb-12 16:49N 35°38' E 139°46'0 0.0
2018-Feb-12 16:22N 35°38' E 139°46'0 0.0
2018-Feb-12 15:02N 35°38' E 139°46'0 0.0
2018-Feb-12 14:35N 35°38' E 139°46'0 0.0
2018-Feb-12 14:29N 35°38' E 139°46'0 0.0
2018-Feb-12 14:00N 35°38' E 139°46'0 0.0
2018-Feb-12 13:28N 35°38' E 139°46'0 0.0
2018-Feb-12 12:54N 35°38' E 139°46'0 0.0
2018-Feb-12 12:29N 35°38' E 139°46'1 1.5
2018-Feb-12 12:00N 35°38' E 139°46'1 2.8
2018-Feb-12 11:29N 35°36' E 139°46'2 4.4
2018-Feb-12 10:56N 35°35' E 139°49'3 6.5
2018-Feb-12 10:30N 35°37' E 139°46'0 0.9
2018-Feb-12 10:00N 35°37' E 139°47'1 2.2
2018-Feb-12 09:29N 35°36' E 139°47'2 4.1
2018-Feb-12 08:55N 35°34' E 139°49'3 7.2
2018-Feb-12 08:30N 35°36' E 139°46'0 0.6
2018-Feb-12 08:00N 35°36' E 139°46'3 5.1
2018-Feb-12 07:30N 35°39' E 139°46'0 0.0
2018-Feb-12 06:59N 35°39' E 139°46'0 0.0
2018-Feb-12 06:30N 35°39' E 139°46'0 0.0
2018-Feb-12 06:00N 35°39' E 139°46'0 0.0
2018-Feb-12 05:13N 35°39' E 139°46'0 0.0
2018-Feb-12 04:47N 35°39' E 139°46'0 0.0
2018-Feb-12 04:22N 35°39' E 139°46'0 0.0
2018-Feb-12 03:58N 35°39' E 139°46'0 0.0
2018-Feb-12 03:19N 35°39' E 139°46'0 0.0
2018-Feb-12 02:58N 35°39' E 139°46'0 0.0
2018-Feb-12 02:27N 35°39' E 139°46'0 0.0
2018-Feb-12 01:53N 35°39' E 139°46'0 0.0
2018-Feb-12 01:26N 35°39' E 139°46'0 0.0
2018-Feb-12 00:58N 35°39' E 139°46'1 1.5
2018-Feb-12 00:30N 35°39' E 139°46'1 0.1
2018-Feb-11 12:18N 35°39' E 139°46'2 8.2
2018-Feb-11 12:00N 35°36' E 139°46'0 0.9
2018-Feb-11 11:30N 35°36' E 139°47'1 1.8
2018-Feb-11 10:57N 35°35' E 139°47'2 4.7
2018-Feb-11 10:31N 35°37' E 139°46'  

Dump ship's entire track history